Details for EasyJet at EGPH




Go Back


Latest METAR
Local Time

EGPH 220820Z 25014KT CAVOK 09/06 Q1012
22/09/2018, 09:52:01

Description
Results
EasyJet Logo
Number of Pilots based at EGPH
0 Pilots Based here
Number of EasyJet Flights Departed from EGPH
9 Flights Departed
Number of EasyJet Flights Arrived at EGPH
4 Flights Arrived
Number of EasyJet Schedules Departing from EGPH
116 Schedules
Number of EasyJet Schedules Arriving at EGPH
111 Schedules
Number of EasyJet Schedules Departing from EGPH availible today
31 Schedules Today
Number of EasyJet Schedules Arriving at EGPH availible today
30 Schedules Today
Average Landing Rate at EGPH
-237 fpm
EasyJet Average Landing Rate at EGPH
-352 fpm
Total Fuel Purchased at EGPH by EasyJet
31,476.14 kgs / 69,392.30 lbs

Pilots Based at EGPH


Pilot ID
Pilot Name
Pilot Rank
No. of Flights
No. of Flying Hours
There are no pilots assigned to this hub!   Will you be the first?
Content